Time;durP1;ratioP1;P1;durP2;ratioP2;P2;SDS_P1;SDS_P2;PMS_P1;PMS_P2;Temp;Humidity;BMP_temperature;BMP_pressure;BME280_temperature;BME280_humidity;BME280_pressure;Samples;Min_cycle;Max_cycle;Signal;HPM_P1;HPM_P2
2023/08/29 00:01:17;;;;;;;0.57;0.57;;;;;;;12.68;100.00;91260.25;4947938;29;20055;-79
2023/08/29 00:03:43;;;;;;;3.13;0.63;;;;;;;12.67;100.00;91268.44;4948979;29;20031;-80
2023/08/29 00:06:08;;;;;;;0.50;0.50;;;;;;;12.59;100.00;91262.22;4953182;29;20043;-79
2023/08/29 00:08:34;;;;;;;0.60;0.60;;;;;;;12.64;100.00;91267.25;4960700;28;20046;-79
2023/08/29 00:11:02;;;;;;;1.58;0.65;;;;;;;12.48;100.00;91261.13;4946073;29;20044;-79
2023/08/29 00:13:28;;;;;;;0.63;0.60;;;;;;;12.39;100.00;91257.84;4932275;29;20023;-80
2023/08/29 00:15:55;;;;;;;0.57;0.57;;;;;;;12.40;100.00;91259.34;4950062;29;20063;-79
2023/08/29 00:18:21;;;;;;;0.60;0.60;;;;;;;12.56;100.00;91267.34;4963374;28;20042;-79
2023/08/29 00:20:47;;;;;;;0.73;0.73;;;;;;;12.63;100.00;91263.09;4947642;29;20082;-79
2023/08/29 00:23:13;;;;;;;2.05;0.60;;;;;;;12.52;100.00;91271.72;4947366;29;20438;-78
2023/08/29 00:25:38;;;;;;;0.60;0.60;;;;;;;12.62;100.00;91256.31;4931154;29;20059;-79
2023/08/29 00:28:04;;;;;;;0.65;0.65;;;;;;;12.50;100.00;91285.19;4953040;28;20083;-78
2023/08/29 00:30:38;;;;;;;0.45;0.45;;;;;;;12.50;100.00;91264.94;4963427;29;20046;-79
2023/08/29 00:33:04;;;;;;;0.95;0.68;;;;;;;12.59;100.00;91270.09;4964420;28;20054;-79
2023/08/29 00:35:30;;;;;;;0.40;0.40;;;;;;;12.57;100.00;91274.16;4952886;28;20040;-79
2023/08/29 00:37:57;;;;;;;1.70;0.50;;;;;;;12.62;100.00;91287.81;4942906;29;20059;-79
2023/08/29 00:40:30;;;;;;;0.40;0.40;;;;;;;12.65;100.00;91283.75;4967150;28;20038;-79
2023/08/29 00:42:57;;;;;;;0.50;0.50;;;;;;;12.63;100.00;91297.25;4964374;28;20039;-79
2023/08/29 00:45:24;;;;;;;0.40;0.40;;;;;;;12.70;100.00;91304.56;4945640;29;20032;-79
2023/08/29 00:47:50;;;;;;;0.52;0.52;;;;;;;12.89;100.00;91306.66;4941441;29;20028;-79
2023/08/29 00:50:16;;;;;;;0.55;0.50;;;;;;;12.90;100.00;91301.06;4951857;29;20035;-79
2023/08/29 00:52:41;;;;;;;1.23;0.73;;;;;;;12.89;100.00;91296.91;4946270;29;20040;-78
2023/08/29 00:55:08;;;;;;;2.35;0.60;;;;;;;12.81;100.00;91307.50;4957256;29;20058;-79
2023/08/29 00:57:34;;;;;;;0.50;0.50;;;;;;;12.88;98.91;91299.88;4954584;29;20039;-79
2023/08/29 01:00:00;;;;;;;0.60;0.60;;;;;;;12.92;97.87;91292.84;4929014;29;20035;-79
2023/08/29 01:02:25;;;;;;;0.40;0.40;;;;;;;12.89;97.63;91317.16;4946244;29;20552;-79
2023/08/29 01:04:51;;;;;;;0.60;0.60;;;;;;;12.94;91.96;91309.03;4947158;29;20503;-79
2023/08/29 01:07:17;;;;;;;0.50;0.50;;;;;;;12.90;96.43;91308.94;4947092;29;20115;-79
2023/08/29 01:09:43;;;;;;;0.60;0.50;;;;;;;12.97;95.65;91305.00;4955967;29;20452;-79
2023/08/29 01:12:14;;;;;;;0.50;0.50;;;;;;;12.89;97.21;91317.91;4965361;28;20117;-79
2023/08/29 01:15:03;;;;;;;0.50;0.50;;;;;;;12.91;98.73;91320.22;4950216;29;20077;-79
2023/08/29 01:17:37;;;;;;;0.50;0.50;;;;;;;12.84;100.00;91330.50;4959678;29;20038;-79
2023/08/29 01:20:05;;;;;;;0.40;0.40;;;;;;;12.80;100.00;91321.75;4957749;29;20074;-79
2023/08/29 01:22:52;;;;;;;0.50;0.50;;;;;;;12.84;100.00;91305.00;4959361;28;20094;-79
2023/08/29 01:25:36;;;;;;;5.47;0.80;;;;;;;12.80;100.00;91293.63;4970080;28;20039;-79
2023/08/29 01:28:02;;;;;;;0.50;0.50;;;;;;;12.70;100.00;91300.06;4946347;29;20040;-78
2023/08/29 01:30:28;;;;;;;2.45;0.57;;;;;;;12.63;100.00;91326.13;4934810;29;20037;-78
2023/08/29 01:32:55;;;;;;;0.43;0.43;;;;;;;12.60;100.00;91305.75;4966109;28;20039;-79
2023/08/29 01:35:22;;;;;;;0.50;0.50;;;;;;;12.61;100.00;91317.78;4952504;28;20027;-79
2023/08/29 01:37:48;;;;;;;0.73;0.73;;;;;;;12.54;100.00;91317.56;4953748;28;20054;-79
2023/08/29 01:40:13;;;;;;;1.58;0.60;;;;;;;12.53;100.00;91316.03;4963304;28;20023;-79
2023/08/29 01:42:40;;;;;;;0.60;0.60;;;;;;;12.50;100.00;91316.69;4966561;28;20043;-78
2023/08/29 01:45:07;;;;;;;0.43;0.43;;;;;;;12.48;100.00;91309.13;4964531;28;20048;-79
2023/08/29 01:47:34;;;;;;;0.50;0.50;;;;;;;12.45;100.00;91314.25;4957157;28;20040;-78
2023/08/29 01:50:03;;;;;;;1.42;0.65;;;;;;;12.44;100.00;91302.22;4942939;29;20044;-79
2023/08/29 01:52:28;;;;;;;0.60;0.60;;;;;;;12.37;100.00;91310.63;4944699;29;20091;-79
2023/08/29 01:54:54;;;;;;;0.50;0.50;;;;;;;12.36;100.00;91305.69;4946953;29;20048;-79
2023/08/29 01:57:21;;;;;;;0.70;0.70;;;;;;;12.32;100.00;91323.22;4951282;28;20039;-78
2023/08/29 01:59:47;;;;;;;0.63;0.63;;;;;;;12.34;100.00;91313.91;4951874;28;20036;-79
2023/08/29 02:02:17;;;;;;;0.50;0.50;;;;;;;12.30;100.00;91318.28;4952583;29;20048;-79
2023/08/29 02:04:43;;;;;;;0.65;0.65;;;;;;;12.20;100.00;91311.56;4962777;29;20046;-78
2023/08/29 02:07:08;;;;;;;0.60;0.60;;;;;;;12.18;100.00;91315.59;4964129;28;20019;-79
2023/08/29 02:09:34;;;;;;;1.25;0.50;;;;;;;12.11;100.00;91303.03;4948969;28;20047;-80
2023/08/29 02:12:01;;;;;;;0.60;0.60;;;;;;;12.05;100.00;91302.47;4951599;29;20038;-79
2023/08/29 02:14:27;;;;;;;0.50;0.50;;;;;;;11.98;100.00;91310.09;4957218;28;20032;-78
2023/08/29 02:16:52;;;;;;;0.52;0.52;;;;;;;11.98;100.00;91309.31;4951642;29;20036;-79
2023/08/29 02:19:19;;;;;;;0.52;0.50;;;;;;;11.91;100.00;91306.44;4944534;29;20039;-79
2023/08/29 02:21:45;;;;;;;0.40;0.40;;;;;;;11.88;100.00;91292.88;4936439;29;20040;-79
2023/08/29 02:24:10;;;;;;;2.50;0.55;;;;;;;11.81;100.00;91310.22;4935029;29;20036;-79
2023/08/29 02:26:36;;;;;;;0.50;0.50;;;;;;;11.80;100.00;91291.09;4945100;29;20054;-79
2023/08/29 02:29:01;;;;;;;0.60;0.60;;;;;;;11.90;100.00;91304.94;4962417;28;20074;-79
2023/08/29 02:31:27;;;;;;;0.50;0.50;;;;;;;11.85;100.00;91290.91;4964926;28;20511;-79
2023/08/29 02:33:53;;;;;;;0.50;0.50;;;;;;;11.89;100.00;91293.69;4924240;29;20064;-79
2023/08/29 02:36:19;;;;;;;0.50;0.50;;;;;;;11.91;100.00;91309.06;4936937;29;20048;-79
2023/08/29 02:38:45;;;;;;;0.40;0.40;;;;;;;11.90;100.00;91294.44;4926345;29;20494;-80
2023/08/29 02:41:12;;;;;;;0.57;0.57;;;;;;;11.98;100.00;91302.22;4943410;28;20106;-79
2023/08/29 02:43:38;;;;;;;0.80;0.63;;;;;;;11.94;100.00;91309.22;4946908;29;20146;-80
2023/08/29 02:46:04;;;;;;;4.22;0.60;;;;;;;11.95;100.00;91294.22;4932517;29;20071;-80
2023/08/29 02:48:31;;;;;;;0.50;0.50;;;;;;;12.08;100.00;91307.06;4945544;29;20087;-79
2023/08/29 02:50:57;;;;;;;0.60;0.43;;;;;;;12.19;100.00;91302.19;4945880;29;20035;-79
2023/08/29 02:53:23;;;;;;;0.50;0.50;;;;;;;12.28;98.01;91307.34;4943790;29;20111;-79
2023/08/29 02:55:52;;;;;;;0.60;0.60;;;;;;;12.32;100.00;91304.84;4947542;29;20118;-79
2023/08/29 02:58:21;;;;;;;0.50;0.50;;;;;;;12.51;98.78;91302.44;4930444;29;20407;-79
2023/08/29 03:00:47;;;;;;;0.57;0.57;;;;;;;12.56;98.90;91314.59;4948493;29;20031;-79
2023/08/29 03:03:13;;;;;;;1.65;0.50;;;;;;;12.56;98.48;91312.72;4955099;28;20080;-79
2023/08/29 03:05:42;;;;;;;2.65;0.68;;;;;;;12.57;99.60;91322.16;4943400;29;20056;-79
2023/08/29 03:08:08;;;;;;;1.65;0.47;;;;;;;12.58;100.00;91313.19;4950231;29;20063;-79
2023/08/29 03:10:38;;;;;;;0.40;0.40;;;;;;;12.60;98.55;91294.47;4944513;29;20039;-79
2023/08/29 03:13:04;;;;;;;0.40;0.40;;;;;;;12.59;100.00;91298.97;4943438;29;20042;-79
2023/08/29 03:15:33;;;;;;;0.50;0.50;;;;;;;12.50;100.00;91300.94;4946914;29;20027;-79
2023/08/29 03:17:59;;;;;;;0.60;0.60;;;;;;;12.49;100.00;91300.16;4948767;28;20040;-79
2023/08/29 03:20:26;;;;;;;0.50;0.50;;;;;;;12.45;100.00;91288.78;4945545;29;20027;-79
2023/08/29 03:22:53;;;;;;;0.50;0.50;;;;;;;12.43;100.00;91288.34;4962813;29;20106;-79
2023/08/29 03:25:22;;;;;;;4.13;0.50;;;;;;;12.34;100.00;91294.75;4947742;28;20055;-79
2023/08/29 03:27:47;;;;;;;0.50;0.50;;;;;;;12.32;100.00;91289.09;4959862;28;20138;-79
2023/08/29 03:30:14;;;;;;;1.08;0.43;;;;;;;12.29;100.00;91280.78;4945129;28;20063;-80
2023/08/29 03:32:40;;;;;;;0.52;0.50;;;;;;;12.29;100.00;91293.91;4943093;29;20039;-79
2023/08/29 03:35:06;;;;;;;0.50;0.50;;;;;;;12.54;93.71;91286.06;4945283;29;20074;-79
2023/08/29 03:37:31;;;;;;;0.40;0.40;;;;;;;12.54;94.05;91306.28;4955041;28;20062;-79
2023/08/29 03:39:57;;;;;;;0.40;0.40;;;;;;;12.74;87.33;91273.91;4951804;28;20043;-79
2023/08/29 03:42:23;;;;;;;0.50;0.50;;;;;;;12.75;90.45;91282.59;4943716;29;20135;-79
2023/08/29 03:44:48;;;;;;;0.63;0.50;;;;;;;12.83;88.54;91277.19;4944618;29;20043;-79
2023/08/29 03:47:14;;;;;;;0.60;0.60;;;;;;;12.80;90.60;91269.22;4949510;28;20413;-79
2023/08/29 03:49:39;;;;;;;0.50;0.50;;;;;;;12.69;91.11;91272.28;4959331;28;20047;-79
2023/08/29 03:52:05;;;;;;;0.45;0.45;;;;;;;12.71;93.13;91283.22;4944431;29;20050;-80
2023/08/29 03:54:31;;;;;;;0.77;0.52;;;;;;;12.67;89.10;91274.47;4943837;29;20056;-79
2023/08/29 03:56:57;;;;;;;0.40;0.40;;;;;;;12.68;91.96;91268.13;4927012;29;20107;-78
2023/08/29 03:59:22;;;;;;;0.50;0.50;;;;;;;12.80;88.22;91272.59;4942732;29;20400;-79
2023/08/29 04:01:48;;;;;;;0.63;0.50;;;;;;;12.84;84.83;91267.47;4942626;29;20116;-78
2023/08/29 04:04:13;;;;;;;0.40;0.40;;;;;;;12.86;85.95;91276.56;4942274;29;20123;-79
2023/08/29 04:06:39;;;;;;;0.65;0.65;;;;;;;12.82;88.53;91275.69;4942567;29;20040;-79
2023/08/29 04:09:08;;;;;;;0.60;0.60;;;;;;;12.85;87.06;91282.13;4955938;29;20556;-80
2023/08/29 04:11:34;;;;;;;0.57;0.57;;;;;;;12.87;86.67;91274.69;4952957;28;20187;-79
2023/08/29 04:14:00;;;;;;;0.50;0.50;;;;;;;12.82;87.83;91272.28;4948168;29;20059;-79
2023/08/29 04:16:26;;;;;;;0.52;0.52;;;;;;;12.84;85.39;91272.72;4942020;29;20043;-80
2023/08/29 04:18:51;;;;;;;0.35;0.35;;;;;;;12.81;86.72;91276.00;4947884;28;20038;-78
2023/08/29 04:21:17;;;;;;;0.60;0.60;;;;;;;12.79;86.07;91271.09;4959676;28;20056;-79
2023/08/29 04:23:43;;;;;;;0.60;0.57;;;;;;;12.78;84.13;91264.28;4944116;29;20038;-79
2023/08/29 04:26:08;;;;;;;1.35;0.50;;;;;;;12.86;81.89;91262.66;4943344;29;20050;-79
2023/08/29 04:28:34;;;;;;;1.00;0.70;;;;;;;12.86;83.64;91260.03;4957313;28;20031;-79
2023/08/29 04:31:07;;;;;;;0.50;0.50;;;;;;;12.80;83.60;91263.97;4962547;29;20082;-79
2023/08/29 04:33:33;;;;;;;0.50;0.50;;;;;;;12.86;80.62;91244.28;4945380;28;20040;-80
2023/08/29 04:35:58;;;;;;;0.60;0.60;;;;;;;12.86;82.66;91262.66;4956504;28;20477;-79
2023/08/29 04:38:24;;;;;;;3.20;0.50;;;;;;;12.80;81.42;91285.75;4957569;28;20126;-82
2023/08/29 04:40:53;;;;;;;0.50;0.50;;;;;;;12.90;81.25;91260.88;4947308;29;20397;-80
2023/08/29 04:43:19;;;;;;;3.63;0.50;;;;;;;12.88;81.36;91263.88;4943361;29;20111;-80
2023/08/29 04:45:45;;;;;;;0.45;0.40;;;;;;;12.82;81.37;91264.41;4950642;29;20032;-80
2023/08/29 04:48:11;;;;;;;0.50;0.50;;;;;;;12.81;82.98;91278.63;4944076;29;20039;-80
2023/08/29 04:50:37;;;;;;;0.50;0.50;;;;;;;12.86;80.18;91260.03;4945139;29;20516;-81
2023/08/29 04:53:03;;;;;;;0.40;0.40;;;;;;;12.89;80.49;91260.13;4942020;29;20494;-83
2023/08/29 04:55:29;;;;;;;0.40;0.40;;;;;;;12.98;78.95;91273.16;4941712;28;20051;-82
2023/08/29 04:57:56;;;;;;;0.40;0.40;;;;;;;12.96;77.75;91259.56;4942652;29;20058;-80
2023/08/29 05:00:23;;;;;;;0.50;0.50;;;;;;;13.01;76.77;91283.00;4942875;29;20107;-82
2023/08/29 05:02:49;;;;;;;0.52;0.52;;;;;;;13.11;73.65;91274.69;4942158;29;20524;-80
2023/08/29 05:05:14;;;;;;;0.95;0.60;;;;;;;13.08;78.36;91275.34;4941471;29;20036;-84
2023/08/29 05:07:40;;;;;;;0.50;0.50;;;;;;;13.05;78.41;91286.50;4940390;29;20264;-80
2023/08/29 05:10:07;;;;;;;0.40;0.40;;;;;;;13.07;76.85;91270.41;4951595;29;20032;-81
2023/08/29 05:12:33;;;;;;;0.40;0.40;;;;;;;13.06;77.15;91282.78;4950866;29;20253;-81
2023/08/29 05:14:59;;;;;;;0.50;0.50;;;;;;;13.11;75.37;91293.06;4944053;29;20042;-81
2023/08/29 05:17:25;;;;;;;1.75;0.52;;;;;;;13.29;75.06;91280.47;4944179;29;20099;-81
2023/08/29 05:19:53;;;;;;;1.08;0.70;;;;;;;13.30;75.82;91278.59;4942749;29;20032;-81
2023/08/29 05:22:18;;;;;;;0.40;0.40;;;;;;;13.28;76.21;91283.44;4930069;29;20103;-81
2023/08/29 05:24:44;;;;;;;0.40;0.40;;;;;;;13.50;69.69;91272.44;4929178;29;20401;-81
2023/08/29 05:27:10;;;;;;;0.85;0.50;;;;;;;13.51;74.69;91270.59;4946876;29;20455;-80
2023/08/29 05:29:35;;;;;;;0.50;0.50;;;;;;;13.44;74.67;91263.25;4945811;29;20039;-81
2023/08/29 05:32:01;;;;;;;0.55;0.55;;;;;;;13.39;75.76;91265.34;4946845;29;20039;-80
2023/08/29 05:34:26;;;;;;;0.47;0.47;;;;;;;13.40;72.18;91286.06;4946481;29;20375;-81
2023/08/29 05:36:52;;;;;;;0.55;0.55;;;;;;;13.65;72.37;91262.31;4934611;29;20537;-81
2023/08/29 05:39:17;;;;;;;0.40;0.40;;;;;;;13.56;73.51;91274.84;4943777;29;20043;-81
2023/08/29 05:41:43;;;;;;;0.57;0.57;;;;;;;13.53;73.95;91284.94;4945043;29;20417;-78
2023/08/29 05:44:09;;;;;;;0.30;0.30;;;;;;;13.62;70.83;91284.00;4945086;29;20024;-80
2023/08/29 05:46:34;;;;;;;0.60;0.60;;;;;;;13.59;70.76;91276.78;4945692;29;20462;-80
2023/08/29 05:49:00;;;;;;;0.55;0.55;;;;;;;13.67;67.70;91283.78;4945068;29;20047;-80
2023/08/29 05:51:26;;;;;;;0.40;0.40;;;;;;;13.71;68.56;91284.63;4945943;29;20375;-80
2023/08/29 05:53:53;;;;;;;0.85;0.60;;;;;;;13.74;71.51;91284.75;4941233;29;20062;-77
2023/08/29 05:56:19;;;;;;;0.57;0.57;;;;;;;13.74;69.13;91278.72;4941146;29;20047;-79
2023/08/29 05:58:44;;;;;;;0.50;0.50;;;;;;;13.81;71.55;91286.03;4941832;29;20035;-80
2023/08/29 06:01:11;;;;;;;0.40;0.40;;;;;;;13.93;70.12;91275.47;4941488;29;20043;-79
2023/08/29 06:03:36;;;;;;;0.50;0.50;;;;;;;14.00;65.90;91288.81;4943638;29;20032;-79
2023/08/29 06:06:03;;;;;;;0.50;0.50;;;;;;;13.95;68.52;91275.91;4945126;29;20063;-81
2023/08/29 06:08:29;;;;;;;0.40;0.40;;;;;;;14.02;66.37;91280.59;4944701;29;20028;-80
2023/08/29 06:10:55;;;;;;;0.40;0.40;;;;;;;14.04;69.18;91288.91;4944612;29;20043;-79
2023/08/29 06:13:20;;;;;;;0.50;0.50;;;;;;;14.01;66.98;91300.13;4945237;29;20544;-79
2023/08/29 06:15:47;;;;;;;0.60;0.60;;;;;;;14.02;69.23;91296.38;4930877;29;20330;-80
2023/08/29 06:18:12;;;;;;;1.17;0.50;;;;;;;14.05;70.43;91291.22;4937413;29;20383;-79
2023/08/29 06:20:38;;;;;;;3.40;0.60;;;;;;;14.08;70.38;91303.69;4941011;29;20043;-80
2023/08/29 06:23:03;;;;;;;0.50;0.50;;;;;;;14.32;67.92;91308.06;4941699;29;20088;-80
2023/08/29 06:25:29;;;;;;;4.10;0.50;;;;;;;15.80;64.62;91294.53;4945890;29;20394;-79
2023/08/29 06:27:55;;;;;;;0.88;0.55;;;;;;;16.85;64.83;91297.94;4944737;29;20714;-79
2023/08/29 06:30:20;;;;;;;0.75;0.50;;;;;;;17.38;61.51;91297.25;4944209;29;20116;-80
2023/08/29 06:32:46;;;;;;;0.40;0.40;;;;;;;17.60;60.38;91287.69;4943453;29;20458;-79
2023/08/29 06:35:11;;;;;;;0.40;0.40;;;;;;;18.61;54.45;91299.47;4944303;29;20048;-79
2023/08/29 06:37:38;;;;;;;0.98;0.52;;;;;;;19.26;49.03;91301.56;4944006;29;20036;-79
2023/08/29 06:40:09;;;;;;;0.30;0.30;;;;;;;19.80;52.24;91301.91;4945202;29;20241;-79
2023/08/29 06:42:37;;;;;;;0.40;0.40;;;;;;;20.42;48.98;91309.00;4945019;29;20040;-79
2023/08/29 06:45:07;;;;;;;0.38;0.38;;;;;;;20.97;44.87;91306.09;4944671;29;20119;-80
2023/08/29 06:47:35;;;;;;;0.70;0.30;;;;;;;21.17;47.14;91311.06;4944958;29;20046;-80
2023/08/29 06:50:01;;;;;;;0.60;0.60;;;;;;;21.55;42.96;91311.47;4946195;29;20124;-80
2023/08/29 06:52:27;;;;;;;0.47;0.47;;;;;;;22.15;39.83;91305.19;4943955;29;20060;-81
2023/08/29 06:54:57;;;;;;;1.60;0.70;;;;;;;22.28;42.86;91296.81;4928700;29;20043;-80
2023/08/29 06:57:22;;;;;;;1.23;0.60;;;;;;;22.62;44.45;91299.69;4944166;29;20048;-81
2023/08/29 06:59:48;;;;;;;1.85;0.40;;;;;;;22.73;44.20;91321.75;4943222;29;20123;-81
2023/08/29 07:02:13;;;;;;;0.85;0.32;;;;;;;22.57;40.31;91318.78;4928825;29;20035;-84
2023/08/29 07:04:39;;;;;;;0.40;0.40;;;;;;;20.93;40.80;91307.22;4919958;29;20033;-81
2023/08/29 07:07:04;;;;;;;0.40;0.20;;;;;;;20.85;45.80;91325.09;4940413;29;20125;-80
2023/08/29 07:09:30;;;;;;;0.68;0.30;;;;;;;20.53;45.84;91304.47;4926585;29;20036;-84
2023/08/29 07:11:57;;;;;;;1.55;0.20;;;;;;;19.97;44.16;91319.06;4938706;29;20532;-83
2023/08/29 07:14:23;;;;;;;0.35;0.35;;;;;;;19.85;45.94;91298.16;4934885;29;20024;-81
2023/08/29 07:16:48;;;;;;;2.22;0.30;;;;;;;20.12;49.61;91312.69;4931059;29;20054;-83
2023/08/29 07:19:14;;;;;;;0.40;0.40;;;;;;;20.15;46.85;91316.47;4939405;29;20024;-81
2023/08/29 07:21:40;;;;;;;0.77;0.32;;;;;;;19.91;47.45;91315.25;4936361;29;20036;-83
2023/08/29 07:24:05;;;;;;;0.35;0.35;;;;;;;20.33;47.90;91316.56;4940990;29;20039;-83
2023/08/29 07:26:31;;;;;;;0.85;0.55;;;;;;;20.15;44.94;91304.00;4944685;29;20047;-83
2023/08/29 07:28:57;;;;;;;0.50;0.50;;;;;;;20.17;46.33;91325.63;4941735;29;20095;-84
2023/08/29 07:31:22;;;;;;;0.30;0.30;;;;;;;20.23;45.44;91314.63;4943713;29;20042;-85
2023/08/29 07:33:48;;;;;;;0.30;0.30;;;;;;;20.59;47.73;91318.94;4942694;29;20511;-84
2023/08/29 07:36:14;;;;;;;0.55;0.30;;;;;;;20.65;42.45;91315.91;4941298;29;20139;-86
2023/08/29 07:38:41;;;;;;;0.30;0.30;;;;;;;20.36;44.40;91315.81;4942173;29;20035;-86
2023/08/29 07:41:07;;;;;;;0.30;0.30;;;;;;;20.65;47.42;91322.00;4940961;29;20099;-81
2023/08/29 07:43:33;;;;;;;0.30;0.30;;;;;;;20.93;43.77;91313.31;4942249;29;20028;-82
2023/08/29 07:45:58;;;;;;;0.30;0.30;;;;;;;20.99;44.88;91324.34;4926369;29;20036;-84
2023/08/29 07:48:24;;;;;;;1.55;0.30;;;;;;;21.08;46.24;91324.72;4940157;29;20469;-81
2023/08/29 07:50:50;;;;;;;0.65;0.32;;;;;;;21.05;43.74;91308.75;4931259;29;20040;-82
2023/08/29 07:53:15;;;;;;;0.45;0.38;;;;;;;21.19;45.10;91330.06;4938072;28;20622;-82
2023/08/29 07:55:41;;;;;;;0.20;0.20;;;;;;;21.35;42.48;91325.13;4935214;29;20034;-82
2023/08/29 07:58:07;;;;;;;0.40;0.40;;;;;;;21.52;44.03;91322.84;4939790;29;20119;-81
2023/08/29 08:00:33;;;;;;;0.40;0.40;;;;;;;21.56;41.69;91323.63;4939753;29;20602;-85
2023/08/29 08:03:00;;;;;;;0.20;0.20;;;;;;;21.71;42.52;91309.13;4940542;29;20032;-83
2023/08/29 08:05:30;;;;;;;4.07;0.30;;;;;;;21.17;43.19;91330.44;4937697;29;20040;-83
2023/08/29 08:07:56;;;;;;;0.20;0.20;;;;;;;20.41;42.74;91312.78;4937726;29;20027;-82
2023/08/29 08:10:22;;;;;;;0.22;0.22;;;;;;;20.55;44.79;91328.78;4937499;29;20062;-82
2023/08/29 08:12:49;;;;;;;0.40;0.40;;;;;;;20.79;45.47;91327.34;4937223;29;20114;-80
2023/08/29 08:15:16;;;;;;;2.03;0.43;;;;;;;20.84;44.51;91331.53;4942120;29;20413;-81
2023/08/29 08:17:42;;;;;;;0.50;0.30;;;;;;;21.02;44.23;91338.78;4949032;28;20095;-82
2023/08/29 08:20:09;;;;;;;0.52;0.30;;;;;;;21.18;42.50;91325.88;4940404;29;20031;-81
2023/08/29 08:22:36;;;;;;;0.20;0.20;;;;;;;21.21;43.36;91339.19;4938814;29;20043;-80
2023/08/29 08:25:02;;;;;;;0.30;0.30;;;;;;;20.86;40.04;91302.66;4939759;29;20039;-82
2023/08/29 08:27:29;;;;;;;0.40;0.40;;;;;;;20.54;45.23;91337.91;4920801;29;20495;-80
2023/08/29 08:29:59;;;;;;;0.30;0.30;;;;;;;20.46;44.15;91328.38;4939110;29;20092;-81
2023/08/29 08:32:25;;;;;;;0.40;0.40;;;;;;;20.13;44.22;91318.78;4936411;29;20032;-82
2023/08/29 08:34:51;;;;;;;0.43;0.35;;;;;;;19.87;45.49;91338.38;4932529;29;20510;-83
2023/08/29 08:37:16;;;;;;;0.25;0.25;;;;;;;19.94;46.54;91333.84;4936359;29;20058;-82
2023/08/29 08:39:43;;;;;;;0.55;0.40;;;;;;;19.95;46.17;91339.94;4935993;29;20446;-83
2023/08/29 08:42:14;;;;;;;0.30;0.30;;;;;;;20.21;46.26;91332.84;4940490;29;20042;-80
2023/08/29 08:44:40;;;;;;;0.30;0.30;;;;;;;20.34;46.91;91349.97;4934809;29;20088;-78
2023/08/29 08:47:07;;;;;;;0.43;0.40;;;;;;;20.38;43.63;91350.75;4940746;29;20039;-80
2023/08/29 08:49:33;;;;;;;0.30;0.30;;;;;;;20.43;45.72;91342.41;4939521;29;20047;-80
2023/08/29 08:52:00;;;;;;;0.30;0.30;;;;;;;20.72;43.96;91345.94;4939657;29;20127;-80
2023/08/29 08:54:25;;;;;;;0.77;0.50;;;;;;;20.97;45.55;91353.22;4941426;29;20040;-80
2023/08/29 08:56:51;;;;;;;0.40;0.40;;;;;;;21.09;45.23;91344.09;4942711;29;20039;-80
2023/08/29 08:59:18;;;;;;;0.95;0.40;;;;;;;21.12;44.11;91338.81;4944877;29;20066;-79
2023/08/29 09:01:44;;;;;;;0.30;0.30;;;;;;;21.05;43.12;91360.06;4944710;29;20032;-80
2023/08/29 09:04:09;;;;;;;0.30;0.30;;;;;;;20.85;42.12;91357.00;4945007;29;20050;-80
2023/08/29 09:06:35;;;;;;;0.50;0.30;;;;;;;20.70;43.11;91368.75;4946589;29;20055;-80
2023/08/29 09:09:24;;;;;;;0.32;0.30;;;;;;;20.72;43.24;91363.81;4946840;29;20529;-80
2023/08/29 09:11:55;;;;;;;0.30;0.30;;;;;;;20.82;41.12;91362.31;4945164;29;20128;-80
2023/08/29 09:14:21;;;;;;;0.30;0.30;;;;;;;20.45;44.34;91380.03;4946555;29;20031;-80
2023/08/29 09:16:56;;;;;;;1.33;0.70;;;;;;;20.14;43.42;91368.88;4945454;29;20039;-80
2023/08/29 09:19:22;;;;;;;1.08;0.43;;;;;;;20.34;42.45;91381.88;4945397;29;20375;-80
2023/08/29 09:21:49;;;;;;;0.40;0.40;;;;;;;20.72;42.96;91369.88;4944547;29;20102;-79
2023/08/29 09:24:22;;;;;;;1.45;0.50;;;;;;;20.82;42.86;91387.00;4943946;29;20046;-80
2023/08/29 09:26:48;;;;;;;0.45;0.40;;;;;;;20.91;42.54;91382.06;4974736;28;20528;-79
2023/08/29 09:29:19;;;;;;;0.25;0.25;;;;;;;21.16;42.70;91395.44;4944447;29;20091;-80
2023/08/29 09:31:48;;;;;;;0.40;0.40;;;;;;;21.28;41.29;91378.34;4943986;29;20123;-80
2023/08/29 09:34:33;;;;;;;0.40;0.40;;;;;;;21.42;41.36;91396.25;4945264;29;20031;-80
2023/08/29 09:37:03;;;;;;;0.32;0.32;;;;;;;21.57;41.99;91394.34;4944024;29;20047;-80
2023/08/29 09:39:29;;;;;;;0.28;0.28;;;;;;;21.44;40.05;91396.66;4944947;29;20031;-81
2023/08/29 09:42:04;;;;;;;0.20;0.20;;;;;;;21.92;39.51;91401.56;4943733;29;20091;-80
2023/08/29 09:44:35;;;;;;;0.43;0.43;;;;;;;21.74;39.10;91390.94;4944126;29;20066;-80
2023/08/29 09:47:01;;;;;;;0.70;0.50;;;;;;;22.14;42.02;91410.28;4944438;29;20075;-80
2023/08/29 09:49:45;;;;;;;0.82;0.40;;;;;;;22.39;39.18;91404.16;4943496;29;20326;-80
2023/08/29 09:52:12;;;;;;;0.22;0.22;;;;;;;21.96;37.45;91412.22;4943118;29;20067;-80
2023/08/29 09:54:44;;;;;;;0.30;0.30;;;;;;;21.92;40.66;91411.47;4943309;29;20071;-80
2023/08/29 09:57:11;;;;;;;0.40;0.40;;;;;;;22.15;39.75;91395.06;4942758;29;20066;-79
2023/08/29 09:59:39;;;;;;;0.30;0.30;;;;;;;22.13;37.98;91410.66;4942766;29;20254;-79
2023/08/29 10:02:06;;;;;;;2.72;0.47;;;;;;;21.82;40.59;91392.44;4943712;29;20063;-80
2023/08/29 10:04:36;;;;;;;0.32;0.32;;;;;;;22.19;41.03;91407.22;4974988;28;20462;-80
2023/08/29 10:07:05;;;;;;;0.40;0.40;;;;;;;22.35;37.89;91408.75;4917269;29;20561;-80
2023/08/29 10:09:32;;;;;;;0.30;0.30;;;;;;;22.42;38.38;91385.47;4933321;29;20043;-80
2023/08/29 10:11:59;;;;;;;0.20;0.20;;;;;;;22.57;39.38;91410.19;4931400;29;20461;-79
2023/08/29 10:14:26;;;;;;;0.30;0.30;;;;;;;22.70;38.09;91401.75;4937075;29;20067;-80
2023/08/29 10:16:53;;;;;;;0.40;0.40;;;;;;;22.51;38.99;91398.41;4937171;29;20510;-79
2023/08/29 10:19:20;;;;;;;0.85;0.50;;;;;;;22.74;40.41;91397.19;4934098;29;20032;-80
2023/08/29 10:21:49;;;;;;;0.30;0.30;;;;;;;22.92;38.96;91395.22;4927888;29;20032;-79
2023/08/29 10:24:15;;;;;;;0.30;0.30;;;;;;;23.04;37.08;91402.78;4933595;29;20085;-79
2023/08/29 10:26:43;;;;;;;2.15;0.50;;;;;;;22.84;36.70;91407.81;4937041;29;20529;-80
2023/08/29 10:29:08;;;;;;;1.38;0.40;;;;;;;22.79;39.18;91402.13;4937454;29;20027;-80
2023/08/29 10:31:35;;;;;;;0.43;0.43;;;;;;;22.95;37.48;91407.75;4936197;29;20047;-81
2023/08/29 10:34:03;;;;;;;1.00;0.43;;;;;;;22.99;38.62;91397.88;4935148;29;20028;-80
2023/08/29 10:36:29;;;;;;;0.47;0.38;;;;;;;23.22;37.22;91400.00;4936216;29;20060;-80
2023/08/29 10:38:56;;;;;;;1.48;0.50;;;;;;;23.13;38.65;91398.94;4937028;29;20040;-80
2023/08/29 10:41:22;;;;;;;0.63;0.52;;;;;;;23.03;39.05;91406.63;4934137;29;20044;-80
2023/08/29 10:43:50;;;;;;;0.40;0.40;;;;;;;23.07;37.25;91412.66;4932794;29;20043;-81
2023/08/29 10:46:16;;;;;;;0.50;0.50;;;;;;;23.34;37.94;91412.13;4935788;29;20036;-81
2023/08/29 10:48:42;;;;;;;0.50;0.40;;;;;;;22.92;36.31;91403.22;4937492;29;20465;-81
2023/08/29 10:51:10;;;;;;;0.30;0.30;;;;;;;23.06;39.79;91408.50;4937246;29;20043;-81
2023/08/29 10:53:42;;;;;;;0.43;0.43;;;;;;;23.33;34.73;91407.19;4938102;29;20568;-80
2023/08/29 10:56:08;;;;;;;0.55;0.35;;;;;;;23.29;35.73;91404.56;4930929;29;20502;-81
2023/08/29 10:58:37;;;;;;;0.50;0.50;;;;;;;23.39;36.70;91400.28;4932686;29;20046;-81
2023/08/29 11:01:03;;;;;;;0.82;0.63;;;;;;;23.16;38.93;91406.16;4944886;29;20043;-81
2023/08/29 11:03:51;;;;;;;0.52;0.47;;;;;;;22.81;41.39;91408.59;4945331;29;20027;-80
2023/08/29 11:06:19;;;;;;;0.50;0.50;;;;;;;23.02;38.00;91407.75;4939572;29;20111;-81
2023/08/29 11:08:44;;;;;;;0.77;0.45;;;;;;;23.04;38.33;91405.47;4944167;29;20031;-80
2023/08/29 11:11:18;;;;;;;0.32;0.32;;;;;;;22.75;41.72;91401.38;4937651;29;20091;-81
2023/08/29 11:14:01;;;;;;;0.45;0.45;;;;;;;22.85;38.46;91416.56;4942244;29;20043;-80
2023/08/29 11:16:29;;;;;;;0.45;0.45;;;;;;;23.08;40.65;91413.44;4943479;29;20036;-80
2023/08/29 11:19:03;;;;;;;0.47;0.47;;;;;;;23.35;37.14;91402.22;4925339;29;20051;-80
2023/08/29 11:21:30;;;;;;;1.23;0.50;;;;;;;23.39;36.65;91408.28;4925177;29;20358;-80
2023/08/29 11:23:57;;;;;;;0.65;0.60;;;;;;;23.26;36.54;91405.34;4924913;29;20148;-80
2023/08/29 11:26:23;;;;;;;0.60;0.60;;;;;;;23.37;38.10;91400.69;4924087;29;20051;-80
2023/08/29 11:28:49;;;;;;;0.98;0.35;;;;;;;23.34;37.80;91404.13;4927234;29;20494;-80
2023/08/29 11:31:18;;;;;;;2.15;0.40;;;;;;;23.23;40.29;91395.44;4943336;29;20035;-80